createdAt,value
2022-08-03T00:01:05.275Z,100509.75
2022-08-03T00:03:54.893Z,100505.95
2022-08-03T00:06:44.961Z,100508.41
2022-08-03T00:09:35.650Z,100507.86
2022-08-03T00:12:26.564Z,100510.02
2022-08-03T00:15:16.936Z,100512.19
2022-08-03T00:18:07.422Z,100511.06
2022-08-03T00:20:56.685Z,100508.89
2022-08-03T00:23:52.282Z,100514.84
2022-08-03T00:26:41.813Z,100511.84
2022-08-03T00:29:30.362Z,100521.31
2022-08-03T00:32:18.912Z,100515.36
2022-08-03T00:35:26.610Z,100521.30
2022-08-03T00:38:21.817Z,100524.26
2022-08-03T00:41:10.776Z,100520.21
2022-08-03T00:43:59.254Z,100523.99
2022-08-03T00:46:48.412Z,100522.62
2022-08-03T00:49:38.513Z,100528.85
2022-08-03T00:52:27.644Z,100528.30
2022-08-03T00:55:17.322Z,100525.86
2022-08-03T00:58:06.798Z,100528.02
2022-08-03T01:00:56.018Z,100527.75
2022-08-03T01:03:44.917Z,100523.41
2022-08-03T01:06:42.616Z,100530.98
2022-08-03T01:09:38.553Z,100536.88
2022-08-03T01:12:35.553Z,100535.53
2022-08-03T01:15:29.827Z,100535.52
2022-08-03T01:18:26.378Z,100527.94
2022-08-03T01:21:22.213Z,100522.23
2022-08-03T01:24:23.852Z,100529.79
2022-08-03T01:27:19.471Z,100531.94
2022-08-03T01:30:11.582Z,100531.39
2022-08-03T01:33:04.715Z,100531.92
2022-08-03T01:36:02.740Z,100525.42
2022-08-03T01:38:54.904Z,100527.02
2022-08-03T01:41:48.722Z,100531.32
2022-08-03T01:44:41.428Z,100530.22
2022-08-03T01:47:32.296Z,100527.21
2022-08-03T01:50:24.929Z,100527.19
2022-08-03T01:53:15.563Z,100524.15
2022-08-03T01:56:09.165Z,100521.42
2022-08-03T01:59:01.179Z,100525.71
2022-08-03T02:02:31.722Z,100528.94
2022-08-03T02:05:01.493Z,100524.33
2022-08-03T02:07:52.602Z,100527.55
2022-08-03T02:10:43.524Z,100528.86
2022-08-03T02:13:35.852Z,100521.56
2022-08-03T02:16:27.117Z,100518.55
2022-08-03T02:19:17.262Z,100520.14
2022-08-03T02:22:08.739Z,100517.16
2022-08-03T02:24:57.111Z,100516.84
2022-08-03T02:27:52.215Z,100525.17
2022-08-03T02:30:44.149Z,100520.81
2022-08-03T02:33:41.557Z,100525.89
2022-08-03T02:36:35.168Z,100520.45
2022-08-03T02:39:28.685Z,100522.30
2022-08-03T02:42:22.105Z,100525.73
2022-08-03T02:45:15.231Z,100523.54
2022-08-03T02:48:06.998Z,100528.65
2022-08-03T02:51:00.322Z,100527.77
2022-08-03T02:53:51.807Z,100527.48
2022-08-03T02:56:41.955Z,100528.23
2022-08-03T02:59:33.890Z,100530.64
2022-08-03T03:02:24.486Z,100531.94
2022-08-03T03:05:56.803Z,100535.14
2022-08-03T03:08:28.697Z,100537.28
2022-08-03T03:11:21.124Z,100535.92
2022-08-03T03:14:13.386Z,100536.98
2022-08-03T03:17:04.103Z,100539.13
2022-08-03T03:19:54.592Z,100545.58
2022-08-03T03:22:47.252Z,100545.25
2022-08-03T03:25:38.598Z,100549.52
2022-08-03T03:28:29.054Z,100548.39
2022-08-03T03:31:18.013Z,100555.36
2022-08-03T03:34:07.176Z,100550.73
2022-08-03T03:36:55.727Z,100555.30
2022-08-03T03:39:44.482Z,100555.56
2022-08-03T03:42:34.264Z,100555.30
2022-08-03T03:45:24.861Z,100561.75
2022-08-03T03:48:14.601Z,100573.36
2022-08-03T03:51:04.420Z,100567.97
2022-08-03T03:54:00.670Z,100560.12
2022-08-03T03:56:49.917Z,100565.51
2022-08-03T03:59:40.689Z,100575.22
2022-08-03T04:02:30.500Z,100575.22
2022-08-03T04:05:37.080Z,100576.84
2022-08-03T04:08:47.125Z,100581.17
2022-08-03T04:11:43.576Z,100587.39
2022-08-03T04:14:36.147Z,100585.50
2022-08-03T04:17:27.699Z,100589.02
2022-08-03T04:20:18.680Z,100598.23
2022-08-03T04:23:12.797Z,100599.59
2022-08-03T04:26:09.156Z,100593.20
2022-08-03T04:28:59.545Z,100597.59
2022-08-03T04:31:49.203Z,100596.58
2022-08-03T04:34:38.582Z,100603.42
2022-08-03T04:37:35.844Z,100594.33
2022-08-03T04:40:30.746Z,100601.97
2022-08-03T04:43:21.750Z,100599.37
2022-08-03T04:46:12.514Z,100599.74
2022-08-03T04:49:03.649Z,100605.23
2022-08-03T04:51:53.686Z,100601.56
2022-08-03T04:54:48.820Z,100603.28
2022-08-03T04:57:40.887Z,100607.45
2022-08-03T05:00:30.668Z,100607.02
2022-08-03T05:03:23.711Z,100609.83
2022-08-03T05:06:14.324Z,100603.17
2022-08-03T05:09:06.101Z,100604.34
2022-08-03T05:11:55.317Z,100601.44
2022-08-03T05:14:45.286Z,100601.24
2022-08-03T05:17:34.255Z,100600.76
2022-08-03T05:20:26.003Z,100597.81
2022-08-03T05:23:15.457Z,100598.67
2022-08-03T05:26:06.054Z,100600.91
2022-08-03T05:28:54.970Z,100603.89
2022-08-03T05:31:44.178Z,100616.64
2022-08-03T05:34:33.025Z,100613.66
2022-08-03T05:37:21.892Z,100616.67
2022-08-03T05:40:14.153Z,100612.61
2022-08-03T05:43:03.910Z,100611.27
2022-08-03T05:46:01.511Z,100608.05
2022-08-03T05:49:01.945Z,100611.28
2022-08-03T05:52:00.150Z,100615.60
2022-08-03T05:54:58.869Z,100623.42
2022-08-03T05:57:49.239Z,100625.02
2022-08-03T06:00:39.040Z,100620.94
2022-08-03T06:03:27.800Z,100620.09
2022-08-03T06:06:16.962Z,100624.10
2022-08-03T06:09:06.539Z,100627.53
2022-08-03T06:11:55.701Z,100626.66
2022-08-03T06:14:44.413Z,100622.23
2022-08-03T06:17:37.245Z,100629.77
2022-08-03T06:20:27.906Z,100628.08
2022-08-03T06:23:18.064Z,100632.11
2022-08-03T06:26:07.258Z,100636.94
2022-08-03T06:28:57.045Z,100635.23
2022-08-03T06:31:46.204Z,100638.96
2022-08-03T06:34:36.187Z,100642.95
2022-08-03T06:37:26.809Z,100633.39
2022-08-03T06:40:16.769Z,100652.89
2022-08-03T06:43:15.355Z,100646.61
2022-08-03T06:46:06.172Z,100647.39
2022-08-03T06:48:56.347Z,100648.19
2022-08-03T06:52:05.545Z,100644.37
2022-08-03T06:54:55.554Z,100646.24
2022-08-03T06:57:44.737Z,100647.29
2022-08-03T07:00:35.133Z,100642.59
2022-08-03T07:03:24.702Z,100639.82
2022-08-03T07:06:14.150Z,100645.15
2022-08-03T07:09:04.263Z,100645.55
2022-08-03T07:11:53.017Z,100645.73
2022-08-03T07:14:41.977Z,100645.88
2022-08-03T07:17:32.375Z,100649.09
2022-08-03T07:20:21.535Z,100641.31
2022-08-03T07:23:17.553Z,100634.94
2022-08-03T07:26:08.060Z,100638.38
2022-08-03T07:29:00.501Z,100641.03
2022-08-03T07:31:49.252Z,100638.83
2022-08-03T07:34:39.237Z,100637.06
2022-08-03T07:37:29.173Z,100639.03
2022-08-03T07:40:17.977Z,100635.91
2022-08-03T07:43:06.526Z,100634.32
2022-08-03T07:45:55.896Z,100629.52
2022-08-03T07:48:44.650Z,100632.59
2022-08-03T07:51:33.204Z,100626.35
2022-08-03T07:54:22.573Z,100627.50
2022-08-03T07:57:12.555Z,100631.08
2022-08-03T08:00:02.599Z,100636.83
2022-08-03T08:03:00.716Z,100628.23
2022-08-03T08:05:50.293Z,100630.25
2022-08-03T08:08:41.869Z,100629.25
2022-08-03T08:11:31.079Z,100624.08
2022-08-03T08:14:21.018Z,100622.95
2022-08-03T08:17:09.818Z,100633.23
2022-08-03T08:19:58.575Z,100626.30
2022-08-03T08:22:48.149Z,100628.97
2022-08-03T08:25:38.746Z,100621.87
2022-08-03T08:28:32.908Z,100625.34
2022-08-03T08:31:23.016Z,100615.27
2022-08-03T08:34:12.346Z,100616.48
2022-08-03T08:37:01.960Z,100610.89
2022-08-03T08:39:51.354Z,100618.41
2022-08-03T08:42:42.161Z,100617.64
2022-08-03T08:45:42.838Z,100609.97
2022-08-03T08:48:32.550Z,100627.06
2022-08-03T08:51:22.942Z,100627.27
2022-08-03T08:54:15.913Z,100620.69
2022-08-03T08:57:12.406Z,100619.91
2022-08-03T09:00:18.162Z,100616.36
2022-08-03T09:03:08.065Z,100614.08
2022-08-03T09:05:58.123Z,100620.52
2022-08-03T09:08:47.217Z,100616.47
2022-08-03T09:12:00.418Z,100611.42
2022-08-03T09:15:07.600Z,100613.35
2022-08-03T09:17:56.991Z,100603.75
2022-08-03T09:20:46.854Z,100607.08
2022-08-03T09:24:01.387Z,100607.83
2022-08-03T09:26:53.676Z,100610.19
2022-08-03T09:29:47.997Z,100600.53
2022-08-03T09:32:38.878Z,100602.55
2022-08-03T09:38:39.016Z,100599.07
2022-08-03T09:41:28.181Z,100593.95
2022-08-03T09:44:25.196Z,100583.59
2022-08-03T09:47:17.027Z,100591.87
2022-08-03T09:50:12.474Z,100587.65
2022-08-03T09:53:03.727Z,100582.37
2022-08-03T09:56:33.598Z,100577.12
2022-08-03T09:59:08.518Z,100576.69
2022-08-03T10:01:58.421Z,100578.66
2022-08-03T10:04:52.116Z,100572.03
2022-08-03T10:07:46.416Z,100571.80
2022-08-03T10:10:43.850Z,100570.66
2022-08-03T10:13:33.302Z,100572.87
2022-08-03T10:16:25.497Z,100569.52
2022-08-03T10:19:15.936Z,100567.77
2022-08-03T10:22:12.632Z,100570.72
2022-08-03T10:25:04.872Z,100569.52
2022-08-03T10:27:57.068Z,100561.79
2022-08-03T10:30:50.585Z,100564.20
2022-08-03T10:33:51.967Z,100556.45
2022-08-03T10:36:42.989Z,100555.30
2022-08-03T10:39:31.837Z,100553.19
2022-08-03T10:42:26.433Z,100551.08
2022-08-03T10:45:20.385Z,100550.45
2022-08-03T10:48:10.593Z,100558.64
2022-08-03T10:51:00.373Z,100546.46
2022-08-03T10:53:55.018Z,100546.42
2022-08-03T10:57:13.728Z,100549.70
2022-08-03T11:00:15.952Z,100548.11
2022-08-03T11:03:10.601Z,100541.63
2022-08-03T11:06:18.574Z,100528.39
2022-08-03T11:09:18.627Z,100530.52
2022-08-03T11:12:31.208Z,100525.70
2022-08-03T11:15:34.194Z,100525.00
2022-08-03T11:18:25.375Z,100523.94
2022-08-03T11:21:16.136Z,100513.42
2022-08-03T11:24:06.861Z,100514.31
2022-08-03T11:27:18.317Z,100509.23
2022-08-03T11:30:11.128Z,100499.02
2022-08-03T11:33:02.037Z,100490.67
2022-08-03T11:36:02.553Z,100494.20
2022-08-03T11:39:16.782Z,100496.39
2022-08-03T11:42:46.793Z,100489.23
2022-08-03T11:45:36.975Z,100487.59
2022-08-03T11:48:34.266Z,100481.44
2022-08-03T11:51:24.224Z,100484.34
2022-08-03T11:54:13.893Z,100478.95
2022-08-03T11:57:03.272Z,100475.61
2022-08-03T11:59:52.430Z,100476.91
2022-08-03T12:02:54.108Z,100478.06
2022-08-03T12:05:51.732Z,100472.91
2022-08-03T12:08:42.968Z,100462.68
2022-08-03T12:11:32.438Z,100460.84
2022-08-03T12:14:49.770Z,100464.42
2022-08-03T12:17:35.959Z,100453.94
2022-08-03T12:20:31.351Z,100449.00
2022-08-03T12:23:27.676Z,100448.27
2022-08-03T12:26:16.561Z,100439.30
2022-08-03T12:29:05.111Z,100435.92
2022-08-03T12:31:54.072Z,100436.05
2022-08-03T12:34:50.662Z,100441.14
2022-08-03T12:37:40.186Z,100440.36
2022-08-03T12:40:30.097Z,100430.47
2022-08-03T12:43:19.130Z,100433.97
2022-08-03T12:46:16.460Z,100431.39
2022-08-03T12:49:08.143Z,100422.16
2022-08-03T12:52:06.841Z,100430.88
2022-08-03T12:55:00.573Z,100422.29
2022-08-03T12:57:50.350Z,100418.00
2022-08-03T13:00:40.952Z,100417.92
2022-08-03T13:03:42.812Z,100424.70
2022-08-03T13:06:32.801Z,100417.92
2022-08-03T13:09:21.763Z,100413.95
2022-08-03T13:12:13.512Z,100413.56
2022-08-03T13:15:03.171Z,100414.00
2022-08-03T13:17:52.886Z,100415.67
2022-08-03T13:20:43.096Z,100407.86
2022-08-03T13:23:32.915Z,100407.55
2022-08-03T13:26:22.282Z,100402.09
2022-08-03T13:29:12.066Z,100403.30
2022-08-03T13:32:03.691Z,100407.98
2022-08-03T13:34:53.319Z,100399.69
2022-08-03T13:37:42.422Z,100401.28
2022-08-03T13:40:41.523Z,100395.02
2022-08-03T13:43:30.790Z,100386.05
2022-08-03T13:46:20.567Z,100383.47
2022-08-03T13:49:10.143Z,100382.41
2022-08-03T13:51:59.312Z,100375.02
2022-08-03T13:54:49.499Z,100377.89
2022-08-03T13:58:02.919Z,100377.56
2022-08-03T14:00:48.515Z,100375.69
2022-08-03T14:03:38.521Z,100378.52
2022-08-03T14:06:27.256Z,100380.05
2022-08-03T14:09:17.301Z,100374.51
2022-08-03T14:12:08.900Z,100367.70
2022-08-03T14:15:01.135Z,100364.52
2022-08-03T14:17:51.287Z,100372.45
2022-08-03T14:20:49.978Z,100368.09
2022-08-03T14:23:43.908Z,100374.31
2022-08-03T14:26:33.324Z,100365.13
2022-08-03T14:29:22.286Z,100365.45
2022-08-03T14:32:13.449Z,100366.98
2022-08-03T14:35:02.664Z,100367.73
2022-08-03T14:37:52.241Z,100366.09
2022-08-03T14:40:40.790Z,100369.50
2022-08-03T14:43:33.730Z,100356.42
2022-08-03T14:46:23.226Z,100364.36
2022-08-03T14:50:30.924Z,100358.61
2022-08-03T14:52:21.211Z,100361.19
2022-08-03T14:55:11.682Z,100363.78
2022-08-03T14:58:05.123Z,100360.67
2022-08-03T15:02:02.742Z,100354.84
2022-08-03T15:04:19.440Z,100350.78
2022-08-03T15:07:08.637Z,100346.42
2022-08-03T15:09:59.081Z,100344.88
2022-08-03T15:12:48.782Z,100350.41
2022-08-03T15:15:37.545Z,100343.59
2022-08-03T15:18:26.089Z,100349.54
2022-08-03T15:21:16.628Z,100345.62
2022-08-03T15:24:24.899Z,100349.35
2022-08-03T15:27:13.661Z,100348.75
2022-08-03T15:30:10.325Z,100356.95
2022-08-03T15:32:59.638Z,100339.52
2022-08-03T15:35:49.381Z,100347.31
2022-08-03T15:38:39.538Z,100354.72
2022-08-03T15:41:28.506Z,100348.03
2022-08-03T15:44:20.229Z,100350.70
2022-08-03T15:47:10.303Z,100345.56
2022-08-03T15:50:00.497Z,100346.73
2022-08-03T15:52:50.029Z,100347.89
2022-08-03T15:55:40.268Z,100351.67
2022-08-03T15:59:09.295Z,100344.02
2022-08-03T16:01:40.120Z,100350.64
2022-08-03T16:04:29.619Z,100346.16
2022-08-03T16:07:39.520Z,100348.05
2022-08-03T16:10:30.091Z,100346.36
2022-08-03T16:13:18.870Z,100354.47
2022-08-03T16:16:07.905Z,100346.04
2022-08-03T16:18:57.406Z,100351.83
2022-08-03T16:21:48.742Z,100354.08
2022-08-03T16:24:39.234Z,100353.92
2022-08-03T16:27:56.592Z,100351.68
2022-08-03T16:30:40.496Z,100353.83
2022-08-03T16:33:29.755Z,100348.92
2022-08-03T16:36:19.228Z,100358.17
2022-08-03T16:39:08.672Z,100361.90
2022-08-03T16:42:01.082Z,100360.94
2022-08-03T16:44:51.249Z,100358.78
2022-08-03T16:47:40.394Z,100360.53
2022-08-03T16:50:30.378Z,100366.56
2022-08-03T16:53:33.721Z,100370.27
2022-08-03T16:56:28.368Z,100370.67
2022-08-03T16:59:17.946Z,100370.02
2022-08-03T17:02:10.414Z,100373.69
2022-08-03T17:05:01.603Z,100384.03
2022-08-03T17:07:54.347Z,100382.59
2022-08-03T17:10:45.325Z,100385.01
2022-08-03T17:13:39.884Z,100381.59
2022-08-03T17:16:29.329Z,100387.11
2022-08-03T17:19:20.941Z,100396.94
2022-08-03T17:22:16.000Z,100404.62
2022-08-03T17:25:08.512Z,100413.41
2022-08-03T17:28:49.400Z,100402.59
2022-08-03T17:31:23.479Z,100402.65
2022-08-03T17:34:26.621Z,100408.78
2022-08-03T17:37:50.029Z,100413.73
2022-08-03T17:40:26.453Z,100423.71
2022-08-03T17:44:14.207Z,100418.05
2022-08-03T17:46:26.753Z,100430.39
2022-08-03T17:49:25.079Z,100434.63
2022-08-03T17:52:21.401Z,100445.50
2022-08-03T17:55:55.683Z,100442.20
2022-08-03T18:02:29.868Z,100444.11
2022-08-03T18:05:22.013Z,100450.09
2022-08-03T18:08:12.401Z,100455.09
2022-08-03T18:11:14.660Z,100462.86
2022-08-03T18:14:16.620Z,100472.54
2022-08-03T18:17:10.371Z,100463.33
2022-08-03T18:20:09.156Z,100470.25
2022-08-03T18:23:04.733Z,100481.82
2022-08-03T18:25:59.105Z,100489.55
2022-08-03T18:28:50.552Z,100490.98
2022-08-03T18:32:02.709Z,100497.55
2022-08-03T18:41:15.745Z,100505.31
2022-08-03T18:44:46.540Z,100509.94
2022-08-03T18:47:50.427Z,100507.48
2022-08-03T18:50:50.034Z,100510.48
2022-08-03T18:54:02.452Z,100515.85
2022-08-03T18:56:57.766Z,100518.55
2022-08-03T18:59:52.783Z,100513.84
2022-08-03T19:02:48.877Z,100514.88
2022-08-03T19:05:57.833Z,100521.91
2022-08-03T19:09:00.565Z,100521.05
2022-08-03T19:12:12.617Z,100524.80
2022-08-03T19:15:12.455Z,100525.52
2022-08-03T19:18:08.827Z,100524.63
2022-08-03T19:20:59.766Z,100530.02
2022-08-03T19:23:49.717Z,100533.48
2022-08-03T19:26:40.748Z,100534.99
2022-08-03T19:29:58.036Z,100542.28
2022-08-03T19:32:41.267Z,100535.42
2022-08-03T19:35:51.447Z,100538.86
2022-08-03T19:38:47.012Z,100549.33
2022-08-03T19:41:41.947Z,100551.65
2022-08-03T19:44:34.501Z,100557.52
2022-08-03T19:47:30.114Z,100555.17
2022-08-03T19:50:20.683Z,100559.92
2022-08-03T19:53:12.326Z,100555.65
2022-08-03T19:56:06.195Z,100556.05
2022-08-03T19:58:56.098Z,100560.77
2022-08-03T20:01:50.296Z,100558.45
2022-08-03T20:04:40.039Z,100560.44
2022-08-03T20:07:31.780Z,100558.87
2022-08-03T20:10:21.444Z,100565.23
2022-08-03T20:13:10.813Z,100562.08
2022-08-03T20:16:08.989Z,100566.27
2022-08-03T20:19:00.407Z,100560.39
2022-08-03T20:21:51.303Z,100563.78
2022-08-03T20:24:43.825Z,100572.34
2022-08-03T20:28:06.730Z,100561.02
2022-08-03T20:30:49.837Z,100566.53
2022-08-03T20:33:48.532Z,100573.94
2022-08-03T20:36:39.427Z,100568.05
2022-08-03T20:39:28.564Z,100571.64
2022-08-03T20:42:21.460Z,100574.43
2022-08-03T20:45:59.480Z,100567.95
2022-08-03T20:48:23.349Z,100577.49
2022-08-03T20:51:19.774Z,100574.84
2022-08-03T20:54:22.469Z,100581.69
2022-08-03T20:57:13.508Z,100580.34
2022-08-03T21:00:07.467Z,100579.31
2022-08-03T21:02:57.526Z,100583.44
2022-08-03T21:05:53.542Z,100583.19
2022-08-03T21:08:48.108Z,100586.79
2022-08-03T21:11:43.454Z,100583.03
2022-08-03T21:13:03.947Z,100452.10
2022-08-03T21:13:04.956Z,100502.59
2022-08-03T21:13:05.228Z,100498.94
2022-08-03T21:14:39.566Z,100595.59
2022-08-03T21:17:41.851Z,100599.16
2022-08-03T21:20:33.323Z,100595.39
2022-08-03T21:23:40.195Z,100598.99
2022-08-03T21:26:34.674Z,100598.52
2022-08-03T21:29:24.710Z,100599.06
2022-08-03T21:32:19.179Z,100596.41
2022-08-03T21:35:23.375Z,100600.27
2022-08-03T21:38:18.924Z,100594.88
2022-08-03T21:41:08.681Z,100596.55
2022-08-03T21:43:58.302Z,100598.48
2022-08-03T21:46:49.812Z,100603.97
2022-08-03T21:50:07.503Z,100601.30
2022-08-03T21:52:51.961Z,100603.78
2022-08-03T21:55:43.056Z,100606.54
2022-08-03T21:58:38.166Z,100612.81
2022-08-03T22:01:29.696Z,100614.47
2022-08-03T22:04:50.886Z,100605.57
2022-08-03T22:07:35.722Z,100615.64
2022-08-03T22:10:27.633Z,100611.07
2022-08-03T22:13:43.345Z,100612.70
2022-08-03T22:16:29.637Z,100607.57
2022-08-03T22:19:19.410Z,100606.78
2022-08-03T22:22:13.516Z,100610.35
2022-08-03T22:25:06.185Z,100614.72
2022-08-03T22:28:01.197Z,100615.84
2022-08-03T22:30:50.155Z,100615.03
2022-08-03T22:33:40.074Z,100618.60
2022-08-03T22:36:30.283Z,100614.83
2022-08-03T22:39:22.792Z,100618.62
2022-08-03T22:42:16.079Z,100620.28
2022-08-03T22:45:08.119Z,100620.01
2022-08-03T22:47:58.231Z,100629.52
2022-08-03T22:50:48.327Z,100618.14
2022-08-03T22:53:38.753Z,100621.12
2022-08-03T22:56:27.635Z,100616.25
2022-08-03T22:59:38.800Z,100621.97
2022-08-03T23:02:26.943Z,100622.52
2022-08-03T23:06:02.022Z,100623.08
2022-08-03T23:08:33.517Z,100620.09
2022-08-03T23:11:24.431Z,100623.89
2022-08-03T23:14:15.330Z,100625.23
2022-08-03T23:17:06.913Z,100628.50
2022-08-03T23:19:58.610Z,100630.67
2022-08-03T23:22:50.370Z,100633.65
2022-08-03T23:25:41.542Z,100633.94
2022-08-03T23:28:32.488Z,100629.07
2022-08-03T23:31:23.151Z,100633.13
2022-08-03T23:34:32.592Z,100628.00
2022-08-03T23:37:22.228Z,100629.63
2022-08-03T23:40:14.194Z,100633.98
2022-08-03T23:43:03.369Z,100627.48
2022-08-03T23:45:55.664Z,100630.20
2022-08-03T23:48:44.723Z,100636.43
2022-08-03T23:51:44.789Z,100627.52
2022-08-03T23:54:46.445Z,100632.11
2022-08-03T23:57:46.337Z,100633.20
